createdAt,value
2022-09-28T00:01:47.958Z,21.43
2022-09-28T00:04:14.422Z,21.42
2022-09-28T00:06:41.322Z,21.41
2022-09-28T00:09:07.587Z,21.41
2022-09-28T00:11:33.931Z,21.40
2022-09-28T00:14:00.251Z,21.40
2022-09-28T00:16:26.742Z,21.38
2022-09-28T00:18:53.441Z,21.37
2022-09-28T00:21:19.815Z,21.36
2022-09-28T00:23:47.069Z,21.36
2022-09-28T00:26:13.346Z,21.34
2022-09-28T00:28:39.674Z,21.34
2022-09-28T00:31:06.046Z,21.33
2022-09-28T00:33:32.523Z,21.31
2022-09-28T00:35:58.945Z,21.32
2022-09-28T00:38:25.220Z,21.30
2022-09-28T00:40:51.504Z,21.29
2022-09-28T00:43:18.511Z,21.29
2022-09-28T00:45:44.781Z,21.28
2022-09-28T00:48:11.123Z,21.27
2022-09-28T00:50:37.463Z,21.26
2022-09-28T00:53:03.744Z,21.25
2022-09-28T00:55:30.022Z,21.25
2022-09-28T00:57:56.363Z,21.24
2022-09-28T01:00:22.876Z,21.23
2022-09-28T01:02:49.229Z,21.22
2022-09-28T01:05:15.689Z,21.20
2022-09-28T01:07:41.981Z,21.19
2022-09-28T01:10:08.276Z,21.19
2022-09-28T01:12:34.597Z,21.18
2022-09-28T01:15:00.967Z,21.18
2022-09-28T01:17:27.478Z,21.16
2022-09-28T01:19:54.173Z,21.15
2022-09-28T01:22:20.676Z,21.15
2022-09-28T01:24:46.926Z,21.14
2022-09-28T01:27:13.375Z,21.14
2022-09-28T01:29:39.813Z,21.13
2022-09-28T01:32:06.134Z,21.11
2022-09-28T01:34:32.626Z,21.12
2022-09-28T01:36:58.880Z,21.10
2022-09-28T01:39:25.260Z,21.11
2022-09-28T01:41:51.776Z,21.11
2022-09-28T01:44:18.084Z,21.09
2022-09-28T01:46:44.482Z,21.08
2022-09-28T01:49:11.131Z,21.06
2022-09-28T01:51:37.397Z,21.06
2022-09-28T01:54:03.685Z,21.06
2022-09-28T01:56:29.932Z,21.04
2022-09-28T01:58:56.422Z,21.04
2022-09-28T02:01:22.803Z,21.04
2022-09-28T02:03:49.097Z,21.02
2022-09-28T02:06:15.421Z,21.02
2022-09-28T02:08:41.709Z,21.02
2022-09-28T02:11:08.001Z,21.01
2022-09-28T02:13:34.245Z,21.01
2022-09-28T02:16:02.487Z,21.01
2022-09-28T02:18:31.646Z,21.01
2022-09-28T02:20:58.105Z,20.99
2022-09-28T02:23:24.686Z,21.00
2022-09-28T02:25:51.046Z,20.97
2022-09-28T02:28:18.845Z,20.97
2022-09-28T02:30:45.137Z,20.99
2022-09-28T02:33:11.512Z,20.97
2022-09-28T02:35:37.810Z,20.96
2022-09-28T02:38:04.171Z,20.95
2022-09-28T02:40:30.649Z,20.94
2022-09-28T02:42:56.980Z,20.94
2022-09-28T02:45:23.301Z,20.94
2022-09-28T02:47:49.625Z,20.93
2022-09-28T02:50:15.942Z,20.94
2022-09-28T02:52:42.180Z,20.93
2022-09-28T02:55:08.492Z,20.92
2022-09-28T02:57:34.958Z,20.92
2022-09-28T03:00:01.446Z,20.91
2022-09-28T03:02:27.795Z,20.91
2022-09-28T03:04:54.421Z,20.89
2022-09-28T03:07:20.740Z,20.88
2022-09-28T03:09:47.311Z,20.89
2022-09-28T03:12:13.540Z,20.89
2022-09-28T03:14:40.001Z,20.87
2022-09-28T03:17:06.432Z,20.86
2022-09-28T03:19:32.900Z,20.87
2022-09-28T03:21:59.420Z,20.86
2022-09-28T03:24:25.780Z,20.86
2022-09-28T03:26:52.089Z,20.86
2022-09-28T03:29:18.689Z,20.85
2022-09-28T03:31:45.195Z,20.85
2022-09-28T03:34:11.724Z,20.85
2022-09-28T03:36:38.124Z,20.84
2022-09-28T03:39:04.424Z,20.84
2022-09-28T03:41:32.168Z,20.82
2022-09-28T03:43:58.486Z,20.83
2022-09-28T03:46:24.782Z,20.83
2022-09-28T03:48:51.045Z,20.82
2022-09-28T03:51:17.446Z,20.82
2022-09-28T03:53:43.770Z,20.81
2022-09-28T03:56:10.061Z,20.80
2022-09-28T03:58:36.375Z,20.80
2022-09-28T04:01:03.805Z,20.78
2022-09-28T04:03:30.295Z,20.79
2022-09-28T04:05:56.693Z,20.76
2022-09-28T04:08:23.072Z,20.76
2022-09-28T04:10:49.823Z,20.76
2022-09-28T04:13:16.816Z,20.75
2022-09-28T04:15:43.218Z,20.74
2022-09-28T04:18:09.570Z,20.73
2022-09-28T04:20:35.821Z,20.73
2022-09-28T04:23:02.217Z,20.73
2022-09-28T04:25:29.272Z,20.70
2022-09-28T04:27:55.520Z,20.71
2022-09-28T04:30:21.845Z,20.70
2022-09-28T04:32:48.288Z,20.69
2022-09-28T04:35:14.696Z,20.68
2022-09-28T04:37:41.077Z,20.67
2022-09-28T04:40:07.327Z,20.67
2022-09-28T04:42:33.588Z,20.65
2022-09-28T04:45:00.024Z,20.65
2022-09-28T04:47:26.308Z,20.65
2022-09-28T04:49:52.597Z,20.63
2022-09-28T04:52:18.906Z,20.61
2022-09-28T04:54:45.175Z,20.61
2022-09-28T04:57:11.423Z,20.60
2022-09-28T04:59:37.784Z,20.59
2022-09-28T05:02:04.387Z,20.58
2022-09-28T05:04:30.705Z,20.59
2022-09-28T05:06:57.030Z,20.57
2022-09-28T05:09:23.404Z,20.57
2022-09-28T05:11:50.059Z,20.55
2022-09-28T05:14:16.444Z,20.55
2022-09-28T05:16:42.740Z,20.55
2022-09-28T05:19:09.455Z,20.52
2022-09-28T05:21:36.356Z,20.48
2022-09-28T05:24:02.681Z,20.50
2022-09-28T05:26:28.930Z,20.48
2022-09-28T05:28:55.420Z,20.48
2022-09-28T05:31:21.679Z,20.47
2022-09-28T05:33:48.048Z,20.46
2022-09-28T05:36:14.342Z,20.46
2022-09-28T05:38:40.935Z,20.43
2022-09-28T05:41:07.335Z,20.42
2022-09-28T05:43:33.697Z,20.42
2022-09-28T05:45:59.972Z,20.41
2022-09-28T05:48:26.511Z,20.41
2022-09-28T05:50:52.779Z,20.43
2022-09-28T05:53:19.171Z,20.41
2022-09-28T05:55:45.702Z,20.41
2022-09-28T05:58:12.198Z,20.40
2022-09-28T06:00:38.714Z,20.40
2022-09-28T06:03:08.717Z,20.40
2022-09-28T06:05:35.578Z,20.50
2022-09-28T06:08:01.852Z,20.38
2022-09-28T06:10:28.174Z,20.37
2022-09-28T06:12:54.473Z,20.36
2022-09-28T06:15:20.878Z,20.36
2022-09-28T06:17:47.463Z,20.35
2022-09-28T06:20:14.067Z,20.35
2022-09-28T06:22:40.463Z,20.34
2022-09-28T06:25:06.743Z,20.33
2022-09-28T06:27:33.289Z,20.33
2022-09-28T06:29:59.579Z,20.34
2022-09-28T06:32:25.887Z,20.32
2022-09-28T06:34:56.162Z,20.31
2022-09-28T06:37:22.746Z,20.31
2022-09-28T06:39:49.022Z,20.31
2022-09-28T06:42:15.526Z,20.31
2022-09-28T06:44:42.133Z,20.32
2022-09-28T06:47:08.573Z,20.29
2022-09-28T06:49:35.091Z,20.29
2022-09-28T06:52:01.660Z,20.29
2022-09-28T06:54:28.187Z,20.30
2022-09-28T06:56:54.536Z,20.31
2022-09-28T06:59:20.941Z,20.28
2022-09-28T07:01:47.482Z,20.26
2022-09-28T07:04:13.991Z,20.26
2022-09-28T07:06:40.308Z,20.27
2022-09-28T07:09:28.288Z,20.25
2022-09-28T07:11:53.141Z,20.25
2022-09-28T07:14:38.986Z,20.23
2022-09-28T07:17:13.797Z,20.25
2022-09-28T07:19:40.654Z,20.25
2022-09-28T07:22:07.256Z,20.24
2022-09-28T07:24:33.659Z,20.24
2022-09-28T07:26:59.975Z,20.23
2022-09-28T07:29:26.693Z,20.24
2022-09-28T07:31:53.396Z,20.23
2022-09-28T07:34:19.701Z,20.23
2022-09-28T07:36:45.964Z,20.22
2022-09-28T07:39:12.292Z,20.21
2022-09-28T07:41:38.537Z,20.20
2022-09-28T07:44:05.163Z,20.20
2022-09-28T07:46:31.554Z,20.19
2022-09-28T07:48:57.859Z,20.20
2022-09-28T07:51:24.123Z,20.18
2022-09-28T07:53:50.406Z,20.18
2022-09-28T07:56:16.847Z,20.17
2022-09-28T07:58:43.151Z,20.18
2022-09-28T08:01:09.957Z,20.18
2022-09-28T08:03:36.511Z,20.18
2022-09-28T08:06:02.785Z,20.18
2022-09-28T08:08:29.081Z,20.15
2022-09-28T08:13:27.356Z,20.15
2022-09-28T08:15:53.929Z,20.14
2022-09-28T08:18:20.296Z,20.16
2022-09-28T08:23:21.804Z,20.15
2022-09-28T08:25:48.199Z,20.13
2022-09-28T08:28:15.772Z,20.13
2022-09-28T08:30:42.192Z,20.09
2022-09-28T08:33:08.631Z,20.11
2022-09-28T08:35:34.982Z,20.12
2022-09-28T08:38:02.482Z,20.12
2022-09-28T08:40:29.179Z,20.12
2022-09-28T08:42:55.514Z,20.13
2022-09-28T08:45:23.171Z,20.14
2022-09-28T08:47:49.922Z,20.12
2022-09-28T08:50:16.225Z,20.13
2022-09-28T08:52:42.814Z,20.15
2022-09-28T08:55:09.215Z,20.10
2022-09-28T08:57:35.519Z,20.08
2022-09-28T09:00:01.886Z,20.07
2022-09-28T09:02:28.338Z,20.08
2022-09-28T09:04:55.242Z,20.06
2022-09-28T09:07:21.718Z,20.05
2022-09-28T09:09:48.059Z,20.07
2022-09-28T09:12:15.233Z,20.07
2022-09-28T09:14:41.490Z,20.10
2022-09-28T09:17:07.856Z,20.09
2022-09-28T09:19:34.152Z,20.08
2022-09-28T09:22:00.454Z,20.09
2022-09-28T09:24:26.762Z,20.08
2022-09-28T09:26:53.017Z,20.07
2022-09-28T09:29:19.272Z,20.07
2022-09-28T09:31:45.553Z,20.09
2022-09-28T09:34:12.153Z,20.07
2022-09-28T09:36:38.486Z,20.08
2022-09-28T09:39:04.775Z,20.06
2022-09-28T09:41:31.089Z,20.06
2022-09-28T09:43:57.708Z,20.06
2022-09-28T09:46:24.094Z,20.06
2022-09-28T09:48:50.584Z,20.06
2022-09-28T09:51:16.885Z,20.06
2022-09-28T09:53:43.184Z,20.04
2022-09-28T09:56:09.501Z,20.06
2022-09-28T09:58:35.804Z,20.04
2022-09-28T10:01:02.139Z,20.04
2022-09-28T10:03:28.533Z,20.03
2022-09-28T10:05:55.260Z,20.04
2022-09-28T10:08:21.540Z,20.03
2022-09-28T10:10:47.768Z,20.03
2022-09-28T10:13:14.072Z,20.03
2022-09-28T10:15:40.401Z,20.02
2022-09-28T10:18:06.708Z,20.01
2022-09-28T10:20:33.161Z,20.01
2022-09-28T10:22:59.483Z,20.01
2022-09-28T10:25:25.899Z,20.01
2022-09-28T10:27:52.154Z,20.02
2022-09-28T10:30:18.430Z,20.00
2022-09-28T10:32:44.807Z,20.01
2022-09-28T10:35:11.575Z,19.99
2022-09-28T10:37:38.861Z,19.99
2022-09-28T10:40:05.311Z,20.00
2022-09-28T10:42:31.790Z,19.99
2022-09-28T10:44:58.113Z,20.00
2022-09-28T10:47:24.357Z,20.01
2022-09-28T10:49:51.409Z,19.99
2022-09-28T10:52:17.630Z,19.98
2022-09-28T10:54:43.904Z,19.98
2022-09-28T10:57:13.363Z,19.99
2022-09-28T10:59:39.944Z,20.00
2022-09-28T11:02:06.326Z,19.97
2022-09-28T11:04:32.646Z,19.99
2022-09-28T11:09:29.790Z,19.98
2022-09-28T11:11:57.332Z,19.97
2022-09-28T11:14:23.824Z,19.97
2022-09-28T11:16:50.258Z,19.97
2022-09-28T11:19:16.775Z,19.98
2022-09-28T11:21:43.155Z,19.96
2022-09-28T11:24:09.444Z,19.98
2022-09-28T11:26:35.817Z,19.97
2022-09-28T11:29:02.193Z,19.94
2022-09-28T11:31:28.632Z,19.94
2022-09-28T11:33:54.978Z,19.96
2022-09-28T11:36:21.424Z,19.96
2022-09-28T11:38:48.340Z,19.95
2022-09-28T11:41:15.576Z,19.96
2022-09-28T11:43:41.849Z,19.95
2022-09-28T11:46:09.655Z,19.93
2022-09-28T11:48:36.044Z,19.95
2022-09-28T11:51:02.355Z,19.92
2022-09-28T11:53:28.661Z,19.94
2022-09-28T11:55:54.906Z,19.91
2022-09-28T11:58:21.265Z,19.92
2022-09-28T12:00:47.531Z,19.94
2022-09-28T12:03:13.893Z,19.93
2022-09-28T12:05:40.323Z,19.91
2022-09-28T12:08:06.728Z,19.91
2022-09-28T12:10:33.021Z,19.92
2022-09-28T12:12:59.829Z,19.93
2022-09-28T12:15:26.152Z,19.92
2022-09-28T12:17:52.954Z,19.93
2022-09-28T12:20:19.400Z,19.92
2022-09-28T12:22:45.769Z,19.93
2022-09-28T12:25:12.111Z,19.91
2022-09-28T12:27:38.399Z,19.91
2022-09-28T12:30:04.938Z,19.91
2022-09-28T12:32:31.270Z,19.91
2022-09-28T12:34:57.558Z,19.90
2022-09-28T12:37:23.853Z,19.90
2022-09-28T12:39:58.418Z,19.89
2022-09-28T12:42:25.060Z,19.90
2022-09-28T12:44:52.945Z,19.90
2022-09-28T12:47:22.188Z,19.91
2022-09-28T12:52:34.996Z,19.89
2022-09-28T12:55:01.409Z,19.90
2022-09-28T12:57:27.945Z,19.89
2022-09-28T12:59:54.298Z,19.89
2022-09-28T13:02:20.613Z,19.86
2022-09-28T13:04:47.119Z,19.87
2022-09-28T13:07:13.433Z,19.86
2022-09-28T13:09:40.690Z,19.86
2022-09-28T13:12:07.333Z,19.86
2022-09-28T13:14:33.930Z,19.86
2022-09-28T13:17:00.835Z,19.87
2022-09-28T13:19:27.813Z,19.85
2022-09-28T13:21:54.251Z,19.86
2022-09-28T13:24:32.102Z,19.84
2022-09-28T13:26:59.644Z,19.84
2022-09-28T13:29:26.039Z,19.85
2022-09-28T13:31:52.352Z,19.83
2022-09-28T13:34:18.685Z,19.81
2022-09-28T13:36:48.176Z,19.82
2022-09-28T13:39:14.896Z,19.83
2022-09-28T13:41:41.174Z,19.82
2022-09-28T13:44:07.540Z,19.81
2022-09-28T13:46:34.102Z,19.81
2022-09-28T13:49:00.339Z,19.79
2022-09-28T13:51:26.577Z,19.80
2022-09-28T13:53:53.019Z,19.80
2022-09-28T13:56:19.435Z,19.80
2022-09-28T13:58:45.931Z,19.82
2022-09-28T14:01:12.643Z,19.79
2022-09-28T14:03:38.929Z,19.80
2022-09-28T14:06:05.233Z,19.78
2022-09-28T14:08:31.557Z,19.79
2022-09-28T14:10:57.954Z,19.79
2022-09-28T14:13:24.613Z,19.79
2022-09-28T14:15:51.008Z,19.81
2022-09-28T14:18:17.407Z,19.79
2022-09-28T14:20:43.935Z,19.79
2022-09-28T14:23:10.362Z,19.79
2022-09-28T14:25:37.109Z,19.79
2022-09-28T14:28:03.424Z,19.77
2022-09-28T14:30:29.671Z,19.78
2022-09-28T14:32:55.931Z,19.78
2022-09-28T14:35:22.357Z,19.76
2022-09-28T14:37:48.620Z,19.76
2022-09-28T14:40:14.980Z,19.72
2022-09-28T14:42:41.361Z,19.72
2022-09-28T14:45:07.681Z,19.71
2022-09-28T14:47:34.048Z,19.69
2022-09-28T14:50:00.271Z,19.67
2022-09-28T14:52:26.637Z,19.68
2022-09-28T14:54:53.133Z,19.69
2022-09-28T14:57:19.755Z,19.70
2022-09-28T14:59:46.160Z,19.69
2022-09-28T15:02:12.403Z,19.72
2022-09-28T15:04:38.702Z,19.73
2022-09-28T15:07:05.230Z,19.71
2022-09-28T15:09:31.538Z,19.74
2022-09-28T15:11:57.881Z,19.72
2022-09-28T15:14:24.281Z,19.72
2022-09-28T15:16:50.948Z,19.66
2022-09-28T15:19:17.285Z,19.65
2022-09-28T15:21:43.566Z,19.66
2022-09-28T15:24:09.929Z,19.68
2022-09-28T15:26:36.231Z,19.68
2022-09-28T15:29:02.652Z,19.68
2022-09-28T15:31:29.047Z,19.68
2022-09-28T15:33:55.479Z,19.68
2022-09-28T15:36:22.583Z,19.68
2022-09-28T15:38:48.821Z,19.67
2022-09-28T15:41:15.093Z,19.67
2022-09-28T15:43:41.629Z,19.68
2022-09-28T15:46:08.092Z,19.66
2022-09-28T15:48:34.540Z,19.64
2022-09-28T15:51:00.792Z,19.66
2022-09-28T15:53:27.201Z,19.66
2022-09-28T15:55:53.517Z,19.65
2022-09-28T15:58:19.788Z,19.65
2022-09-28T16:00:46.048Z,19.64
2022-09-28T16:03:12.524Z,19.65
2022-09-28T16:05:38.850Z,19.64
2022-09-28T16:08:05.416Z,19.62
2022-09-28T16:10:31.705Z,19.58
2022-09-28T16:12:57.981Z,19.57
2022-09-28T16:15:24.310Z,19.58
2022-09-28T16:17:51.692Z,19.59
2022-09-28T16:20:17.969Z,19.60
2022-09-28T16:22:44.251Z,19.60
2022-09-28T16:25:10.522Z,19.61
2022-09-28T16:27:37.004Z,19.61
2022-09-28T16:30:03.297Z,19.61
2022-09-28T16:32:29.552Z,19.61
2022-09-28T16:34:55.853Z,19.63
2022-09-28T16:37:22.087Z,19.61
2022-09-28T16:39:48.507Z,19.61
2022-09-28T16:42:14.843Z,19.61
2022-09-28T16:44:41.208Z,19.61
2022-09-28T16:47:07.712Z,19.61
2022-09-28T16:49:34.426Z,19.61
2022-09-28T16:52:00.692Z,19.60
2022-09-28T16:54:27.019Z,19.60
2022-09-28T16:56:53.271Z,19.58
2022-09-28T16:59:19.641Z,19.60
2022-09-28T17:01:46.042Z,19.60
2022-09-28T17:04:12.385Z,19.59
2022-09-28T17:06:38.726Z,19.59
2022-09-28T17:09:05.156Z,19.62
2022-09-28T17:11:31.470Z,19.60
2022-09-28T17:13:57.891Z,19.59
2022-09-28T17:19:10.606Z,19.59
2022-09-28T17:21:36.897Z,19.58
2022-09-28T17:24:03.428Z,19.58
2022-09-28T17:26:29.796Z,19.57
2022-09-28T17:28:56.097Z,19.57
2022-09-28T17:31:22.393Z,19.57
2022-09-28T17:33:48.713Z,19.57
2022-09-28T17:36:15.101Z,19.57
2022-09-28T17:38:41.478Z,19.56
2022-09-28T17:41:08.250Z,19.55
2022-09-28T17:43:34.658Z,19.55
2022-09-28T17:46:01.026Z,19.54
2022-09-28T17:48:27.734Z,19.54
2022-09-28T17:50:54.005Z,19.55
2022-09-28T17:53:20.461Z,19.53
2022-09-28T17:55:46.753Z,19.54
2022-09-28T17:58:12.991Z,19.54
2022-09-28T18:00:39.237Z,19.54
2022-09-28T18:03:05.666Z,19.54
2022-09-28T18:05:32.097Z,19.54
2022-09-28T18:07:58.429Z,19.53
2022-09-28T18:10:24.682Z,19.52
2022-09-28T18:12:51.079Z,19.52
2022-09-28T18:15:17.465Z,19.52
2022-09-28T18:17:43.797Z,19.51
2022-09-28T18:20:11.505Z,19.50
2022-09-28T18:25:21.714Z,19.51
2022-09-28T18:27:48.185Z,19.51
2022-09-28T18:30:14.780Z,19.51
2022-09-28T18:32:41.966Z,19.50
2022-09-28T18:35:08.499Z,19.50
2022-09-28T18:37:34.877Z,19.49
2022-09-28T18:40:01.117Z,19.50
2022-09-28T18:42:27.443Z,19.49
2022-09-28T18:44:53.698Z,19.47
2022-09-28T18:47:20.024Z,19.48
2022-09-28T18:49:46.925Z,19.48
2022-09-28T18:52:13.449Z,19.47
2022-09-28T18:54:39.758Z,19.47
2022-09-28T18:57:06.058Z,19.46
2022-09-28T18:59:32.280Z,19.47
2022-09-28T19:01:58.683Z,19.46
2022-09-28T19:04:25.218Z,19.46
2022-09-28T19:06:51.568Z,19.44
2022-09-28T19:09:17.866Z,19.44
2022-09-28T19:11:44.193Z,19.44
2022-09-28T19:14:10.463Z,19.45
2022-09-28T19:16:36.862Z,19.44
2022-09-28T19:19:03.168Z,19.46
2022-09-28T19:21:29.477Z,19.45
2022-09-28T19:23:56.101Z,19.43
2022-09-28T19:26:22.327Z,19.43
2022-09-28T19:28:48.607Z,19.45
2022-09-28T19:31:14.890Z,19.45
2022-09-28T19:33:41.193Z,19.43
2022-09-28T19:36:07.607Z,19.43
2022-09-28T19:38:35.813Z,19.44
2022-09-28T19:41:02.204Z,19.43
2022-09-28T19:43:28.929Z,19.42
2022-09-28T19:45:55.260Z,19.41
2022-09-28T19:48:21.557Z,19.41
2022-09-28T19:50:48.064Z,19.41
2022-09-28T19:53:14.375Z,19.40
2022-09-28T19:55:40.755Z,19.41
2022-09-28T19:58:07.080Z,19.42
2022-09-28T20:00:33.442Z,19.42
2022-09-28T20:02:59.818Z,19.41
2022-09-28T20:05:26.161Z,19.40
2022-09-28T20:07:52.484Z,19.40
2022-09-28T20:10:19.713Z,19.40
2022-09-28T20:12:46.142Z,19.39
2022-09-28T20:15:12.414Z,19.39
2022-09-28T20:17:39.176Z,19.39
2022-09-28T20:20:05.545Z,19.38
2022-09-28T20:22:31.929Z,19.39
2022-09-28T20:24:58.565Z,19.38
2022-09-28T20:27:26.455Z,19.37
2022-09-28T20:29:53.182Z,19.37
2022-09-28T20:32:19.833Z,19.37
2022-09-28T20:34:46.367Z,19.36
2022-09-28T20:37:12.734Z,19.36
2022-09-28T20:39:44.091Z,19.35
2022-09-28T20:42:11.181Z,19.36
2022-09-28T20:44:38.161Z,19.36
2022-09-28T20:47:04.774Z,19.36
2022-09-28T20:49:31.141Z,19.35
2022-09-28T20:51:57.412Z,19.34
2022-09-28T20:54:23.722Z,19.33
2022-09-28T20:56:50.074Z,19.34
2022-09-28T20:59:16.849Z,19.32
2022-09-28T21:01:43.197Z,19.32
2022-09-28T21:04:09.918Z,19.33
2022-09-28T21:06:36.405Z,19.33
2022-09-28T21:09:02.725Z,19.33
2022-09-28T21:11:29.000Z,19.31
2022-09-28T21:13:55.292Z,19.32
2022-09-28T21:16:21.561Z,19.31
2022-09-28T21:18:47.899Z,19.30
2022-09-28T21:21:14.292Z,19.30
2022-09-28T21:23:40.529Z,19.30
2022-09-28T21:26:06.782Z,19.30
2022-09-28T21:28:33.276Z,19.29
2022-09-28T21:30:59.713Z,19.29
2022-09-28T21:33:26.210Z,19.29
2022-09-28T21:35:52.675Z,19.29
2022-09-28T21:38:19.072Z,19.28
2022-09-28T21:40:45.453Z,19.28
2022-09-28T21:43:11.844Z,19.28
2022-09-28T21:45:38.132Z,19.28
2022-09-28T21:48:04.418Z,19.27
2022-09-28T21:50:30.705Z,19.26
2022-09-28T21:52:57.246Z,19.26
2022-09-28T21:55:23.591Z,19.26
2022-09-28T21:57:49.883Z,19.27
2022-09-28T22:00:16.198Z,19.26
2022-09-28T22:02:42.927Z,19.26
2022-09-28T22:05:09.581Z,19.23
2022-09-28T22:07:35.902Z,19.24
2022-09-28T22:10:02.480Z,19.26
2022-09-28T22:12:28.762Z,19.24
2022-09-28T22:14:55.095Z,19.24
2022-09-28T22:17:21.421Z,19.25
2022-09-28T22:19:47.691Z,19.23
2022-09-28T22:22:14.101Z,19.23
2022-09-28T22:24:40.418Z,19.23
2022-09-28T22:27:06.698Z,19.22
2022-09-28T22:29:33.000Z,19.21
2022-09-28T22:31:59.263Z,19.21
2022-09-28T22:34:25.568Z,19.21
2022-09-28T22:36:51.862Z,19.21
2022-09-28T22:39:18.212Z,19.21
2022-09-28T22:41:44.472Z,19.21
2022-09-28T22:44:10.743Z,19.21
2022-09-28T22:46:37.285Z,19.19
2022-09-28T22:49:03.813Z,19.19
2022-09-28T22:51:30.163Z,19.19
2022-09-28T22:53:56.567Z,19.19
2022-09-28T22:56:22.898Z,19.16
2022-09-28T22:58:49.150Z,19.17
2022-09-28T23:01:15.595Z,19.18
2022-09-28T23:03:42.340Z,19.18
2022-09-28T23:06:08.634Z,19.16
2022-09-28T23:08:34.930Z,19.16
2022-09-28T23:11:01.202Z,19.15
2022-09-28T23:13:27.710Z,19.15
2022-09-28T23:15:54.891Z,19.15
2022-09-28T23:18:21.181Z,19.16
2022-09-28T23:20:47.463Z,19.16
2022-09-28T23:23:13.712Z,19.16
2022-09-28T23:25:39.960Z,19.15
2022-09-28T23:28:06.454Z,19.13
2022-09-28T23:30:32.883Z,19.14
2022-09-28T23:32:59.243Z,19.12
2022-09-28T23:35:25.603Z,19.15
2022-09-28T23:37:51.873Z,19.12
2022-09-28T23:40:18.232Z,19.12
2022-09-28T23:42:45.460Z,19.12
2022-09-28T23:45:11.733Z,19.11
2022-09-28T23:47:38.194Z,19.10
2022-09-28T23:50:04.454Z,19.10
2022-09-28T23:52:30.764Z,19.11
2022-09-28T23:54:57.002Z,19.10
2022-09-28T23:57:23.313Z,19.11
2022-09-28T23:59:49.567Z,19.09
